Time,TemperatureF,DewpointF,PressureIn,WindDirection,WindDirectionDegrees,WindSpeedMPH,WindSpeedGustMPH,Humidity,HourlyPrecipIn,Conditions,Clouds,dailyrainin,SoftwareType,DateUTC
2014-11-22 00:00:00,48.2,39.6,30.00,SW,236,0.0,0.0,72,0.00,,---,0.00,VWS V13.01,2014-11-22 08:00:00,
2014-11-22 00:05:00,48.2,39.6,30.00,SW,236,0.0,0.0,72,0.00,,---,0.00,VWS V13.01,2014-11-22 08:05:00,
2014-11-22 00:10:00,48.0,39.8,30.00,SW,236,0.0,0.0,73,0.00,,---,0.00,VWS V13.01,2014-11-22 08:10:00,
2014-11-22 00:15:00,48.0,39.8,30.00,SW,236,0.0,0.0,73,0.00,,---,0.00,VWS V13.01,2014-11-22 08:15:00,
2014-11-22 00:20:00,47.9,39.7,29.99,SW,236,0.0,0.0,73,0.00,,---,0.00,VWS V13.01,2014-11-22 08:20:00,
2014-11-22 00:25:00,47.7,39.1,29.99,SW,236,0.0,0.0,72,0.00,,---,0.00,VWS V13.01,2014-11-22 08:25:00,
2014-11-22 00:30:00,47.6,39.4,29.99,SW,236,0.0,0.0,73,0.00,,---,0.00,VWS V13.01,2014-11-22 08:30:00,
2014-11-22 00:35:00,47.6,39.4,30.00,SW,236,0.0,0.0,73,0.00,,---,0.00,VWS V13.01,2014-11-22 08:35:00,
2014-11-22 00:40:00,47.6,39.7,30.00,SW,236,0.0,0.0,74,0.00,,---,0.00,VWS V13.01,2014-11-22 08:40:00,
2014-11-22 00:45:00,47.4,39.9,30.00,SW,236,0.0,0.0,75,0.00,,---,0.00,VWS V13.01,2014-11-22 08:45:00,
2014-11-22 00:50:00,47.4,39.9,29.99,SW,236,0.0,0.0,75,0.00,,---,0.00,VWS V13.01,2014-11-22 08:50:00,
2014-11-22 00:55:00,47.3,39.8,29.99,SW,236,0.0,0.0,75,0.00,,---,0.00,VWS V13.01,2014-11-22 08:55:00,
2014-11-22 01:00:00,47.1,39.6,29.99,SW,236,0.0,0.0,75,0.00,,---,0.00,VWS V13.01,2014-11-22 09:00:00,
2014-11-22 01:05:00,47.0,39.8,30.00,SW,236,0.0,0.0,76,0.00,,---,0.00,VWS V13.01,2014-11-22 09:05:00,
2014-11-22 01:10:00,46.8,39.7,30.00,SW,236,0.0,0.0,76,0.00,,---,0.00,VWS V13.01,2014-11-22 09:10:00,
2014-11-22 01:15:00,46.7,39.9,30.00,SW,236,0.0,0.0,77,0.00,,---,0.00,VWS V13.01,2014-11-22 09:15:00,
2014-11-22 01:20:00,46.4,39.6,30.00,SW,236,0.0,0.0,77,0.00,,---,0.00,VWS V13.01,2014-11-22 09:20:00,
2014-11-22 01:25:00,46.4,39.6,30.00,SW,236,0.0,0.0,77,0.00,,---,0.00,VWS V13.01,2014-11-22 09:25:00,
2014-11-22 01:30:00,46.2,39.4,30.00,SW,236,0.0,0.0,77,0.00,,---,0.00,VWS V13.01,2014-11-22 09:30:00,
2014-11-22 01:35:00,46.2,39.7,30.01,SW,236,0.0,0.0,78,0.00,,---,0.00,VWS V13.01,2014-11-22 09:35:00,
2014-11-22 01:40:00,46.1,39.3,30.01,SW,236,0.0,0.0,77,0.00,,---,0.00,VWS V13.01,2014-11-22 09:40:00,
2014-11-22 01:45:00,46.0,39.2,30.01,SW,236,0.0,0.0,77,0.00,,---,0.00,VWS V13.01,2014-11-22 09:45:00,
2014-11-22 01:50:00,45.8,39.0,30.00,SW,236,0.0,0.0,77,0.00,,---,0.00,VWS V13.01,2014-11-22 09:50:00,
2014-11-22 01:55:00,45.7,38.9,30.00,SW,236,0.0,0.0,77,0.00,,---,0.00,VWS V13.01,2014-11-22 09:55:00,
2014-11-22 02:00:00,45.5,38.4,30.00,SW,236,0.0,0.0,76,0.00,,---,0.00,VWS V13.01,2014-11-22 10:00:00,
2014-11-22 02:05:00,45.5,38.4,30.00,SW,236,0.0,0.0,76,0.00,,---,0.00,VWS V13.01,2014-11-22 10:05:00,
2014-11-22 02:10:00,45.4,38.0,30.00,SW,236,0.0,0.0,75,0.00,,---,0.00,VWS V13.01,2014-11-22 10:10:00,
2014-11-22 02:15:00,45.4,38.0,30.00,SW,236,0.0,0.0,75,0.00,,---,0.00,VWS V13.01,2014-11-22 10:15:00,
2014-11-22 02:20:00,45.2,37.8,30.01,SW,236,0.0,0.0,75,0.00,,---,0.00,VWS V13.01,2014-11-22 10:20:00,
2014-11-22 02:25:00,45.1,37.3,30.01,SW,236,0.0,0.0,74,0.00,,---,0.00,VWS V13.01,2014-11-22 10:25:00,
2014-11-22 02:30:00,45.1,37.3,30.01,SW,236,0.0,0.0,74,0.00,,---,0.00,VWS V13.01,2014-11-22 10:30:00,
2014-11-22 02:35:00,45.1,37.3,30.01,SW,236,0.0,0.0,74,0.00,,---,0.00,VWS V13.01,2014-11-22 10:35:00,
2014-11-22 02:40:00,44.9,37.1,30.01,SW,236,0.0,0.0,74,0.00,,---,0.00,VWS V13.01,2014-11-22 10:40:00,
2014-11-22 02:45:00,44.9,37.5,30.01,SW,236,0.0,0.0,75,0.00,,---,0.00,VWS V13.01,2014-11-22 10:45:00,
2014-11-22 02:50:00,44.9,37.5,30.00,SW,236,0.0,0.0,75,0.00,,---,0.00,VWS V13.01,2014-11-22 10:50:00,
2014-11-22 02:55:00,44.9,37.8,30.00,SW,236,0.0,0.0,76,0.00,,---,0.00,VWS V13.01,2014-11-22 10:55:00,
2014-11-22 03:00:00,44.9,37.8,30.00,SW,236,0.0,0.0,76,0.00,,---,0.00,VWS V13.01,2014-11-22 11:00:00,
2014-11-22 03:05:00,44.9,37.8,30.00,SW,236,0.0,0.0,76,0.00,,---,0.00,VWS V13.01,2014-11-22 11:05:00,
2014-11-22 03:10:00,44.8,37.7,30.00,SW,236,0.0,0.0,76,0.00,,---,0.00,VWS V13.01,2014-11-22 11:10:00,
2014-11-22 03:15:00,44.6,37.5,30.00,SW,236,0.0,0.0,76,0.00,,---,0.00,VWS V13.01,2014-11-22 11:15:00,
2014-11-22 03:20:00,44.5,37.8,30.00,SW,236,0.0,0.0,77,0.00,,---,0.00,VWS V13.01,2014-11-22 11:20:00,
2014-11-22 03:25:00,44.5,37.8,30.00,SW,236,0.0,0.0,77,0.00,,---,0.00,VWS V13.01,2014-11-22 11:25:00,
2014-11-22 03:30:00,44.3,37.6,30.00,SW,236,0.0,0.0,77,0.00,,---,0.00,VWS V13.01,2014-11-22 11:30:00,
2014-11-22 03:35:00,44.3,37.9,30.01,SW,236,0.0,0.0,78,0.00,,---,0.00,VWS V13.01,2014-11-22 11:35:00,
2014-11-22 03:40:00,44.3,37.9,30.01,SW,236,0.0,0.0,78,0.00,,---,0.00,VWS V13.01,2014-11-22 11:40:00,
2014-11-22 03:45:00,44.2,37.8,30.01,SW,236,0.0,0.0,78,0.00,,---,0.00,VWS V13.01,2014-11-22 11:45:00,
2014-11-22 03:50:00,44.2,37.8,30.01,SW,236,0.0,0.0,78,0.00,,---,0.00,VWS V13.01,2014-11-22 11:50:00,
2014-11-22 03:55:00,44.1,37.7,30.01,SW,236,0.0,0.0,78,0.00,,---,0.00,VWS V13.01,2014-11-22 11:55:00,
2014-11-22 04:00:00,44.1,37.7,30.01,SW,236,0.0,0.0,78,0.00,,---,0.00,VWS V13.01,2014-11-22 12:00:00,
2014-11-22 04:05:00,44.1,37.7,30.01,SW,236,0.0,0.0,78,0.00,,---,0.00,VWS V13.01,2014-11-22 12:05:00,
2014-11-22 04:10:00,43.9,37.5,30.01,SW,236,0.0,0.0,78,0.00,,---,0.00,VWS V13.01,2014-11-22 12:10:00,
2014-11-22 04:15:00,43.8,37.4,30.01,SW,236,0.0,0.0,78,0.00,,---,0.00,VWS V13.01,2014-11-22 12:15:00,
2014-11-22 04:20:00,43.8,37.4,30.01,SW,236,0.0,0.0,78,0.00,,---,0.00,VWS V13.01,2014-11-22 12:20:00,
2014-11-22 04:25:00,43.6,37.2,30.01,SW,236,0.0,0.0,78,0.00,,---,0.00,VWS V13.01,2014-11-22 12:25:00,
2014-11-22 04:30:00,43.6,37.2,30.01,SW,236,0.0,0.0,78,0.00,,---,0.00,VWS V13.01,2014-11-22 12:30:00,
2014-11-22 04:35:00,43.6,37.2,30.01,SW,236,0.0,0.0,78,0.00,,---,0.00,VWS V13.01,2014-11-22 12:35:00,
2014-11-22 04:40:00,43.6,37.2,30.01,SW,236,0.0,0.0,78,0.00,,---,0.00,VWS V13.01,2014-11-22 12:40:00,
2014-11-22 04:45:00,43.6,37.2,30.01,SW,236,0.0,0.0,78,0.00,,---,0.00,VWS V13.01,2014-11-22 12:45:00,
2014-11-22 04:50:00,43.8,37.7,30.01,SW,236,0.0,0.0,79,0.00,,---,0.00,VWS V13.01,2014-11-22 12:50:00,
2014-11-22 04:55:00,43.8,37.7,30.01,SW,236,0.0,0.0,79,0.00,,---,0.00,VWS V13.01,2014-11-22 12:55:00,
2014-11-22 05:00:00,43.8,37.7,30.01,SW,236,0.0,0.0,79,0.00,,---,0.00,VWS V13.01,2014-11-22 13:00:00,
2014-11-22 05:05:00,43.6,37.5,30.00,SW,236,0.0,0.0,79,0.00,,---,0.00,VWS V13.01,2014-11-22 13:05:00,
2014-11-22 05:09:00,43.6,37.5,30.00,SW,236,0.0,0.0,79,0.00,,---,0.00,VWS V13.01,2014-11-22 13:09:00,
2014-11-22 05:15:00,43.5,37.4,30.00,SW,236,0.0,0.0,79,0.00,,---,0.00,VWS V13.01,2014-11-22 13:15:00,
2014-11-22 05:20:00,43.3,37.6,30.02,SW,236,0.0,0.0,80,0.00,,---,0.00,VWS V13.01,2014-11-22 13:20:00,
2014-11-22 05:24:00,43.3,37.6,30.02,SW,236,0.0,0.0,80,0.00,,---,0.00,VWS V13.01,2014-11-22 13:24:00,
2014-11-22 05:29:00,43.2,37.5,30.02,SW,236,0.0,0.0,80,0.00,,---,0.00,VWS V13.01,2014-11-22 13:29:00,
2014-11-22 05:34:00,43.1,37.4,30.02,SW,236,0.0,0.0,80,0.00,,---,0.00,VWS V13.01,2014-11-22 13:34:00,
2014-11-22 05:39:00,43.1,37.4,30.02,SW,236,0.0,0.0,80,0.00,,---,0.00,VWS V13.01,2014-11-22 13:39:00,
2014-11-22 05:44:00,43.1,37.4,30.02,SW,236,0.0,0.0,80,0.00,,---,0.00,VWS V13.01,2014-11-22 13:44:00,
2014-11-22 05:49:00,42.9,37.2,30.02,SW,236,0.0,0.0,80,0.00,,---,0.00,VWS V13.01,2014-11-22 13:49:00,
2014-11-22 05:54:00,42.9,37.2,30.02,SW,236,0.0,0.0,80,0.00,,---,0.00,VWS V13.01,2014-11-22 13:54:00,
2014-11-22 05:59:00,42.9,37.2,30.02,SW,236,0.0,0.0,80,0.00,,---,0.00,VWS V13.01,2014-11-22 13:59:00,
2014-11-22 06:04:00,42.9,36.8,30.02,SW,236,0.0,0.0,79,0.00,,---,0.00,VWS V13.01,2014-11-22 14:04:00,
2014-11-22 06:09:00,42.8,36.8,30.02,SW,236,0.0,0.0,79,0.00,,---,0.00,VWS V13.01,2014-11-22 14:09:00,
2014-11-22 06:14:00,42.8,36.8,30.02,SW,236,0.0,0.0,79,0.00,,---,0.00,VWS V13.01,2014-11-22 14:14:00,
2014-11-22 06:19:00,42.6,36.5,30.02,SW,236,0.0,0.0,79,0.00,,---,0.00,VWS V13.01,2014-11-22 14:19:00,
2014-11-22 06:24:00,42.6,36.9,30.02,SW,236,0.0,0.0,80,0.00,,---,0.00,VWS V13.01,2014-11-22 14:24:00,
2014-11-22 06:29:00,42.6,36.9,30.02,SW,236,0.0,0.0,80,0.00,,---,0.00,VWS V13.01,2014-11-22 14:29:00,
2014-11-22 06:34:00,42.6,36.9,30.03,SW,236,0.0,0.0,80,0.00,,---,0.00,VWS V13.01,2014-11-22 14:34:00,
2014-11-22 06:39:00,42.8,37.1,30.03,SW,236,0.0,0.0,80,0.00,,---,0.00,VWS V13.01,2014-11-22 14:39:00,
2014-11-22 06:44:00,42.8,37.1,30.03,SW,236,0.0,0.0,80,0.00,,---,0.00,VWS V13.01,2014-11-22 14:44:00,
2014-11-22 06:49:00,42.8,37.1,30.03,SW,236,0.0,0.0,80,0.00,,---,0.00,VWS V13.01,2014-11-22 14:49:00,
2014-11-22 06:54:00,42.8,37.1,30.03,SW,236,0.0,0.0,80,0.00,,---,0.00,VWS V13.01,2014-11-22 14:54:00,
2014-11-22 06:59:00,42.9,37.2,30.03,SW,236,0.0,0.0,80,0.00,,---,0.00,VWS V13.01,2014-11-22 14:59:00,
2014-11-22 07:04:00,43.1,37.0,30.03,SW,236,0.0,0.0,79,0.00,,---,0.00,VWS V13.01,2014-11-22 15:04:00,
2014-11-22 07:09:00,43.2,37.1,30.03,SW,236,0.0,0.0,79,0.00,,---,0.00,VWS V13.01,2014-11-22 15:09:00,
2014-11-22 07:14:00,43.3,36.9,30.03,SW,236,0.0,0.0,78,0.00,,---,0.00,VWS V13.01,2014-11-22 15:14:00,
2014-11-22 07:19:00,43.5,36.8,30.04,SW,236,0.0,0.0,77,0.00,,---,0.00,VWS V13.01,2014-11-22 15:19:00,
2014-11-22 07:24:00,43.6,36.9,30.04,SW,236,0.0,0.0,77,0.00,,---,0.00,VWS V13.01,2014-11-22 15:24:00,
2014-11-22 07:29:00,44.1,37.0,30.04,SW,236,0.0,0.0,76,0.00,,---,0.00,VWS V13.01,2014-11-22 15:29:00,
2014-11-22 07:34:00,44.6,37.2,30.04,SW,236,0.0,0.0,75,0.00,,---,0.00,VWS V13.01,2014-11-22 15:34:00,
2014-11-22 07:39:00,44.9,37.1,30.04,SW,236,0.0,0.0,74,0.00,,---,0.00,VWS V13.01,2014-11-22 15:39:00,
2014-11-22 07:44:00,45.7,37.9,30.04,SW,236,0.0,0.0,74,0.00,,---,0.00,VWS V13.01,2014-11-22 15:44:00,
2014-11-22 07:49:00,46.1,38.3,30.03,SW,236,0.0,0.0,74,0.00,,---,0.00,VWS V13.01,2014-11-22 15:49:00,
2014-11-22 07:54:00,46.8,39.0,30.03,SW,236,0.0,0.0,74,0.00,,---,0.00,VWS V13.01,2014-11-22 15:54:00,
2014-11-22 07:59:00,47.3,39.1,30.03,SW,236,0.0,0.0,73,0.00,,---,0.00,VWS V13.01,2014-11-22 15:59:00,
2014-11-22 08:04:00,48.0,39.1,30.03,SW,236,0.0,0.0,71,0.00,,---,0.00,VWS V13.01,2014-11-22 16:04:00,
2014-11-22 08:09:00,48.6,38.9,30.03,SW,236,0.0,0.0,69,0.00,,---,0.00,VWS V13.01,2014-11-22 16:09:00,
2014-11-22 08:14:00,49.4,39.7,30.03,SW,236,0.0,0.0,69,0.00,,---,0.00,VWS V13.01,2014-11-22 16:14:00,
2014-11-22 08:19:00,50.1,40.0,30.04,SW,236,0.0,0.0,68,0.00,,---,0.00,VWS V13.01,2014-11-22 16:19:00,
2014-11-22 08:24:00,51.0,40.4,30.04,SW,236,0.0,0.0,67,0.00,,---,0.00,VWS V13.01,2014-11-22 16:24:00,
2014-11-22 08:29:00,51.7,41.1,30.04,SW,236,0.0,0.0,67,0.00,,---,0.00,VWS V13.01,2014-11-22 16:29:00,
2014-11-22 08:34:00,52.6,41.2,30.05,SW,236,0.0,0.0,65,0.00,,---,0.00,VWS V13.01,2014-11-22 16:34:00,
2014-11-22 08:39:00,53.6,40.9,30.05,SW,236,0.0,0.0,62,0.00,,---,0.00,VWS V13.01,2014-11-22 16:39:00,
2014-11-22 08:44:00,54.7,41.5,30.05,SW,236,0.0,2.0,61,0.00,,---,0.00,VWS V13.01,2014-11-22 16:44:00,
2014-11-22 08:49:00,55.4,40.9,30.05,SW,236,0.0,2.0,58,0.00,,---,0.00,VWS V13.01,2014-11-22 16:49:00,
2014-11-22 08:54:00,56.3,41.3,30.05,SW,230,0.0,2.0,57,0.00,,---,0.00,VWS V13.01,2014-11-22 16:54:00,
2014-11-22 08:59:00,57.0,41.0,30.05,SW,230,0.0,2.0,55,0.00,,---,0.00,VWS V13.01,2014-11-22 16:59:00,
2014-11-22 09:04:00,57.8,40.8,30.04,SW,230,0.0,0.0,53,0.00,,---,0.00,VWS V13.01,2014-11-22 17:04:00,
2014-11-22 09:09:00,58.3,40.3,30.04,SW,230,0.0,1.0,51,0.00,,---,0.00,VWS V13.01,2014-11-22 17:09:00,
2014-11-22 09:14:00,58.9,39.8,30.04,NNW,339,0.0,3.0,49,0.00,,---,0.00,VWS V13.01,2014-11-22 17:14:00,
2014-11-22 09:19:00,59.5,40.3,30.05,NNW,339,0.0,3.0,49,0.00,,---,0.00,VWS V13.01,2014-11-22 17:19:00,
2014-11-22 09:24:00,59.9,40.7,30.05,NNW,339,0.0,3.0,49,0.00,,---,0.00,VWS V13.01,2014-11-22 17:24:00,
2014-11-22 09:29:00,60.4,40.1,30.05,NNW,339,0.0,3.0,47,0.00,,---,0.00,VWS V13.01,2014-11-22 17:29:00,
2014-11-22 09:34:00,60.7,40.9,30.04,NNW,339,0.0,0.0,48,0.00,,---,0.00,VWS V13.01,2014-11-22 17:34:00,
2014-11-22 09:39:00,61.0,40.1,30.04,NNW,339,0.0,0.0,46,0.00,,---,0.00,VWS V13.01,2014-11-22 17:39:00,
2014-11-22 09:44:00,61.5,41.1,30.04,NNW,339,0.0,0.0,47,0.00,,---,0.00,VWS V13.01,2014-11-22 17:44:00,
2014-11-22 09:49:00,61.8,40.8,30.04,ENE,62,0.0,3.0,46,0.00,,---,0.00,VWS V13.01,2014-11-22 17:49:00,
2014-11-22 09:54:00,62.0,40.4,30.04,ENE,62,0.0,3.0,45,0.00,,---,0.00,VWS V13.01,2014-11-22 17:54:00,
2014-11-22 09:59:00,62.3,40.1,30.04,ENE,62,0.0,3.0,44,0.00,,---,0.00,VWS V13.01,2014-11-22 17:59:00,
2014-11-22 10:04:00,62.4,40.2,30.05,North,354,0.0,0.0,44,0.00,,---,0.00,VWS V13.01,2014-11-22 18:04:00,
2014-11-22 10:09:00,62.6,39.2,30.05,North,354,0.0,1.0,42,0.00,,---,0.00,VWS V13.01,2014-11-22 18:09:00,
2014-11-22 10:14:00,62.7,38.7,30.05,North,354,0.0,1.0,41,0.00,,---,0.00,VWS V13.01,2014-11-22 18:14:00,
2014-11-22 10:19:00,62.9,38.9,30.05,North,354,0.0,2.0,41,0.00,,---,0.00,VWS V13.01,2014-11-22 18:19:00,
2014-11-22 10:24:00,63.2,39.8,30.05,NE,54,0.0,2.0,42,0.00,,---,0.00,VWS V13.01,2014-11-22 18:24:00,
2014-11-22 10:29:00,63.2,39.1,30.05,NE,54,2.0,2.0,41,0.00,,---,0.00,VWS V13.01,2014-11-22 18:29:00,
2014-11-22 10:34:00,63.4,39.3,30.04,NE,54,0.0,0.0,41,0.00,,---,0.00,VWS V13.01,2014-11-22 18:34:00,
2014-11-22 10:39:00,63.7,39.0,30.04,NE,55,0.0,1.0,40,0.00,,---,0.00,VWS V13.01,2014-11-22 18:39:00,
2014-11-22 10:44:00,63.9,39.8,30.04,NE,55,0.0,1.0,41,0.00,,---,0.00,VWS V13.01,2014-11-22 18:44:00,
2014-11-22 10:49:00,64.2,39.4,30.02,NE,55,0.0,1.0,40,0.00,,---,0.00,VWS V13.01,2014-11-22 18:49:00,
2014-11-22 10:54:00,64.5,39.7,30.02,NE,55,0.0,2.0,40,0.00,,---,0.00,VWS V13.01,2014-11-22 18:54:00,
2014-11-22 10:59:00,64.8,39.3,30.02,WNW,299,0.0,2.0,39,0.00,,---,0.00,VWS V13.01,2014-11-22 18:59:00,
2014-11-22 11:04:00,65.3,37.7,30.01,NW,304,0.0,0.0,36,0.00,,---,0.00,VWS V13.01,2014-11-22 19:04:00,
2014-11-22 11:09:00,65.8,38.8,30.01,West,281,3.0,4.0,37,0.00,,---,0.00,VWS V13.01,2014-11-22 19:09:00,
2014-11-22 11:14:00,66.4,38.7,30.01,West,281,0.0,4.0,36,0.00,,---,0.00,VWS V13.01,2014-11-22 19:14:00,
2014-11-22 11:19:00,66.9,39.1,30.00,West,280,0.0,6.0,36,0.00,,---,0.00,VWS V13.01,2014-11-22 19:19:00,
2014-11-22 11:24:00,67.3,39.5,30.00,West,280,0.0,6.0,36,0.00,,---,0.00,VWS V13.01,2014-11-22 19:24:00,
2014-11-22 11:29:00,67.4,38.1,30.00,NNE,14,0.0,6.0,34,0.00,,---,0.00,VWS V13.01,2014-11-22 19:29:00,
2014-11-22 11:34:00,67.6,38.3,29.99,NNE,14,0.0,0.0,34,0.00,,---,0.00,VWS V13.01,2014-11-22 19:34:00,
2014-11-22 11:39:00,67.9,37.0,29.99,WSW,254,2.0,5.0,32,0.00,,---,0.00,VWS V13.01,2014-11-22 19:39:00,
2014-11-22 11:44:00,68.4,37.4,29.99,West,264,5.0,6.0,32,0.00,,---,0.00,VWS V13.01,2014-11-22 19:44:00,
2014-11-22 11:49:00,68.9,37.8,29.98,West,281,0.0,8.0,32,0.00,,---,0.00,VWS V13.01,2014-11-22 19:49:00,
2014-11-22 11:54:00,68.9,38.6,29.98,WNW,291,0.0,8.0,33,0.00,,---,0.00,VWS V13.01,2014-11-22 19:54:00,
2014-11-22 11:59:00,69.1,38.0,29.98,WNW,285,0.0,8.0,32,0.00,,---,0.00,VWS V13.01,2014-11-22 19:59:00,
2014-11-22 12:04:00,69.3,37.4,29.97,WNW,287,0.0,0.0,31,0.00,,---,0.00,VWS V13.01,2014-11-22 20:04:00,
2014-11-22 12:08:00,69.6,38.5,29.97,WNW,287,0.0,0.0,32,0.00,,---,0.00,VWS V13.01,2014-11-22 20:08:00,
2014-11-22 12:13:00,70.3,39.1,29.97,WNW,284,0.0,2.0,32,0.00,,---,0.00,VWS V13.01,2014-11-22 20:13:00,
2014-11-22 12:18:00,70.8,39.5,29.97,WNW,284,0.0,2.0,32,0.00,,---,0.00,VWS V13.01,2014-11-22 20:18:00,
2014-11-22 12:23:00,71.1,39.8,29.97,WSW,241,0.0,4.0,32,0.00,,---,0.00,VWS V13.01,2014-11-22 20:23:00,
2014-11-22 12:28:00,70.9,39.6,29.97,West,268,0.0,4.0,32,0.00,,---,0.00,VWS V13.01,2014-11-22 20:28:00,
2014-11-22 12:33:00,70.9,40.4,29.96,West,268,0.0,0.0,33,0.00,,---,0.00,VWS V13.01,2014-11-22 20:33:00,
2014-11-22 12:38:00,70.9,38.8,29.96,West,268,0.0,0.0,31,0.00,,---,0.00,VWS V13.01,2014-11-22 20:38:00,
2014-11-22 12:43:00,70.9,40.4,29.96,SW,236,5.0,5.0,33,0.00,,---,0.00,VWS V13.01,2014-11-22 20:43:00,
2014-11-22 12:48:00,70.9,41.9,29.96,West,272,0.0,7.0,35,0.00,,---,0.00,VWS V13.01,2014-11-22 20:48:00,
2014-11-22 12:53:00,70.9,41.9,29.96,West,268,0.0,7.0,35,0.00,,---,0.00,VWS V13.01,2014-11-22 20:53:00,
2014-11-22 12:58:00,70.9,41.9,29.96,West,277,0.0,7.0,35,0.00,,---,0.00,VWS V13.01,2014-11-22 20:58:00,
2014-11-22 13:03:00,70.9,41.9,29.95,NW,306,0.0,0.0,35,0.00,,---,0.00,VWS V13.01,2014-11-22 21:03:00,
2014-11-22 13:08:00,70.9,41.2,29.95,WSW,253,0.0,6.0,34,0.00,,---,0.00,VWS V13.01,2014-11-22 21:08:00,
2014-11-22 13:13:00,70.8,42.5,29.95,WSW,254,1.0,6.0,36,0.00,,---,0.00,VWS V13.01,2014-11-22 21:13:00,
2014-11-22 13:18:00,70.8,41.8,29.95,WSW,254,0.0,8.0,35,0.00,,---,0.00,VWS V13.01,2014-11-22 21:18:00,
2014-11-22 13:23:00,70.6,41.7,29.95,WSW,253,0.0,8.0,35,0.00,,---,0.00,VWS V13.01,2014-11-22 21:23:00,
2014-11-22 13:28:00,70.8,41.8,29.95,WSW,253,0.0,8.0,35,0.00,,---,0.00,VWS V13.01,2014-11-22 21:28:00,
2014-11-22 13:33:00,70.8,43.3,29.94,WSW,253,0.0,2.0,37,0.00,,---,0.00,VWS V13.01,2014-11-22 21:33:00,
2014-11-22 13:38:00,70.8,42.5,29.94,WSW,256,0.0,3.0,36,0.00,,---,0.00,VWS V13.01,2014-11-22 21:38:00,
2014-11-22 13:43:00,70.8,44.0,29.94,NW,325,0.0,3.0,38,0.00,,---,0.00,VWS V13.01,2014-11-22 21:43:00,
2014-11-22 13:48:00,70.6,44.5,29.94,WSW,253,0.0,5.0,39,0.00,,---,0.00,VWS V13.01,2014-11-22 21:48:00,
2014-11-22 13:53:00,70.6,44.5,29.94,West,267,0.0,5.0,39,0.00,,---,0.00,VWS V13.01,2014-11-22 21:53:00,
2014-11-22 13:58:00,70.8,44.6,29.94,WSW,256,0.0,5.0,39,0.00,,---,0.00,VWS V13.01,2014-11-22 21:58:00,
2014-11-22 14:03:00,70.6,43.8,29.93,WSW,258,1.0,8.0,38,0.00,,---,0.00,VWS V13.01,2014-11-22 22:03:00,
2014-11-22 14:08:00,70.6,43.1,29.93,West,270,0.0,8.0,37,0.00,,---,0.00,VWS V13.01,2014-11-22 22:08:00,
2014-11-22 14:13:00,70.6,43.1,29.93,WSW,257,0.0,8.0,37,0.00,,---,0.00,VWS V13.01,2014-11-22 22:13:00,
2014-11-22 14:18:00,70.6,43.8,29.94,WSW,244,3.0,8.0,38,0.00,,---,0.00,VWS V13.01,2014-11-22 22:18:00,
2014-11-22 14:23:00,70.4,44.3,29.94,WSW,239,0.0,8.0,39,0.00,,---,0.00,VWS V13.01,2014-11-22 22:23:00,
2014-11-22 14:28:00,70.4,44.3,29.94,WSW,243,0.0,8.0,39,0.00,,---,0.00,VWS V13.01,2014-11-22 22:28:00,
2014-11-22 14:33:00,70.4,42.9,29.93,WSW,243,0.0,0.0,37,0.00,,---,0.00,VWS V13.01,2014-11-22 22:33:00,
2014-11-22 14:38:00,70.6,44.5,29.93,WSW,253,0.0,3.0,39,0.00,,---,0.00,VWS V13.01,2014-11-22 22:38:00,
2014-11-22 14:43:00,70.6,45.1,29.93,WSW,256,0.0,3.0,40,0.00,,---,0.00,VWS V13.01,2014-11-22 22:43:00,
2014-11-22 14:48:00,70.6,46.4,29.92,WSW,256,0.0,3.0,42,0.00,,---,0.00,VWS V13.01,2014-11-22 22:48:00,
2014-11-22 14:53:00,70.3,48.0,29.92,WSW,256,0.0,3.0,45,0.00,,---,0.00,VWS V13.01,2014-11-22 22:53:00,
2014-11-22 14:58:00,70.1,47.8,29.92,WSW,256,0.0,3.0,45,0.00,,---,0.00,VWS V13.01,2014-11-22 22:58:00,
2014-11-22 15:03:00,69.9,48.2,29.92,WSW,256,0.0,0.0,46,0.00,,---,0.00,VWS V13.01,2014-11-22 23:03:00,
2014-11-22 15:08:00,69.9,47.0,29.92,WNW,284,3.0,3.0,44,0.00,,---,0.00,VWS V13.01,2014-11-22 23:08:00,
2014-11-22 15:13:00,69.9,45.2,29.92,West,278,0.0,5.0,41,0.00,,---,0.00,VWS V13.01,2014-11-22 23:13:00,
2014-11-22 15:18:00,70.1,45.3,29.93,West,278,0.0,5.0,41,0.00,,---,0.00,VWS V13.01,2014-11-22 23:18:00,
2014-11-22 15:23:00,70.3,44.2,29.93,West,278,0.0,5.0,39,0.00,,---,0.00,VWS V13.01,2014-11-22 23:23:00,
2014-11-22 15:28:00,70.4,44.3,29.93,West,271,0.0,5.0,39,0.00,,---,0.00,VWS V13.01,2014-11-22 23:28:00,
2014-11-22 15:33:00,70.1,44.7,29.93,West,275,1.0,1.0,40,0.00,,---,0.00,VWS V13.01,2014-11-22 23:33:00,
2014-11-22 15:38:00,69.8,45.1,29.93,West,275,0.0,1.0,41,0.00,,---,0.00,VWS V13.01,2014-11-22 23:38:00,
2014-11-22 15:43:00,69.4,45.3,29.93,West,278,0.0,5.0,42,0.00,,---,0.00,VWS V13.01,2014-11-22 23:43:00,
2014-11-22 15:48:00,69.3,45.9,29.93,West,278,0.0,5.0,43,0.00,,---,0.00,VWS V13.01,2014-11-22 23:48:00,
2014-11-22 15:53:00,68.9,46.1,29.93,West,278,0.0,5.0,44,0.00,,---,0.00,VWS V13.01,2014-11-22 23:53:00,
2014-11-22 15:58:00,68.8,46.0,29.93,West,278,0.0,5.0,44,0.00,,---,0.00,VWS V13.01,2014-11-22 23:58:00,
2014-11-22 16:03:00,68.4,46.2,29.93,West,278,0.0,0.0,45,0.00,,---,0.00,VWS V13.01,2014-11-23 00:03:00,
2014-11-22 16:08:00,68.1,46.0,29.93,West,278,0.0,0.0,45,0.00,,---,0.00,VWS V13.01,2014-11-23 00:08:00,
2014-11-22 16:13:00,67.9,45.8,29.93,West,278,0.0,0.0,45,0.00,,---,0.00,VWS V13.01,2014-11-23 00:13:00,
2014-11-22 16:18:00,67.6,45.5,29.93,West,278,0.0,2.0,45,0.00,,---,0.00,VWS V13.01,2014-11-23 00:18:00,
2014-11-22 16:23:00,67.3,45.2,29.93,West,278,0.0,2.0,45,0.00,,---,0.00,VWS V13.01,2014-11-23 00:23:00,
2014-11-22 16:28:00,67.1,44.5,29.93,West,278,0.0,2.0,44,0.00,,---,0.00,VWS V13.01,2014-11-23 00:28:00,
2014-11-22 16:33:00,66.8,44.8,29.93,West,278,0.0,0.0,45,0.00,,---,0.00,VWS V13.01,2014-11-23 00:33:00,
2014-11-22 16:38:00,66.4,44.4,29.93,West,278,0.0,0.0,45,0.00,,---,0.00,VWS V13.01,2014-11-23 00:38:00,
2014-11-22 16:43:00,66.3,44.9,29.93,West,278,0.0,0.0,46,0.00,,---,0.00,VWS V13.01,2014-11-23 00:43:00,
2014-11-22 16:48:00,65.8,45.0,29.93,West,278,0.0,0.0,47,0.00,,---,0.00,VWS V13.01,2014-11-23 00:48:00,
2014-11-22 16:53:00,65.5,44.8,29.93,West,278,0.0,0.0,47,0.00,,---,0.00,VWS V13.01,2014-11-23 00:53:00,
2014-11-22 16:58:00,65.2,45.6,29.93,West,278,0.0,0.0,49,0.00,,---,0.00,VWS V13.01,2014-11-23 00:58:00,
2014-11-22 17:03:00,64.8,45.2,29.94,West,278,0.0,0.0,49,0.00,,---,0.00,VWS V13.01,2014-11-23 01:03:00,
2014-11-22 17:08:00,64.3,44.8,29.94,West,278,0.0,0.0,49,0.00,,---,0.00,VWS V13.01,2014-11-23 01:08:00,
2014-11-22 17:13:00,63.9,45.4,29.94,West,278,0.0,0.0,51,0.00,,---,0.00,VWS V13.01,2014-11-23 01:13:00,
2014-11-22 17:18:00,63.5,45.6,29.93,West,278,0.0,0.0,52,0.00,,---,0.00,VWS V13.01,2014-11-23 01:18:00,
2014-11-22 17:23:00,63.1,45.7,29.93,West,278,0.0,0.0,53,0.00,,---,0.00,VWS V13.01,2014-11-23 01:23:00,
2014-11-22 17:28:00,62.9,46.0,29.93,West,278,0.0,0.0,54,0.00,,---,0.00,VWS V13.01,2014-11-23 01:28:00,
2014-11-22 17:33:00,62.4,46.0,29.92,West,278,0.0,0.0,55,0.00,,---,0.00,VWS V13.01,2014-11-23 01:33:00,
2014-11-22 17:38:00,62.1,46.2,29.92,West,278,0.0,0.0,56,0.00,,---,0.00,VWS V13.01,2014-11-23 01:38:00,
2014-11-22 17:43:00,61.8,46.0,29.92,West,278,0.0,0.0,56,0.00,,---,0.00,VWS V13.01,2014-11-23 01:43:00,
2014-11-22 17:48:00,61.3,46.0,29.93,West,278,0.0,0.0,57,0.00,,---,0.00,VWS V13.01,2014-11-23 01:48:00,
2014-11-22 17:53:00,61.0,46.6,29.93,West,278,0.0,0.0,59,0.00,,---,0.00,VWS V13.01,2014-11-23 01:53:00,
2014-11-22 17:58:00,60.7,46.3,29.93,West,278,0.0,0.0,59,0.00,,---,0.00,VWS V13.01,2014-11-23 01:58:00,
2014-11-22 18:03:00,60.4,46.0,29.93,West,278,0.0,0.0,59,0.00,,---,0.00,VWS V13.01,2014-11-23 02:03:00,
2014-11-22 18:08:00,60.2,46.7,29.93,West,278,0.0,0.0,61,0.00,,---,0.00,VWS V13.01,2014-11-23 02:08:00,
2014-11-22 18:13:00,59.9,46.4,29.93,West,278,0.0,0.0,61,0.00,,---,0.00,VWS V13.01,2014-11-23 02:13:00,